sensor_id;sensor_type;location;lat;lon;timestamp;pressure;altitude;pressure_sealevel;temperature;humidity
28310;BME280;15571;50.974;13.936;2022-12-19T00:02:33;101515.00;;;-3.91;100.00
28310;BME280;15571;50.974;13.936;2022-12-19T00:05:35;101502.13;;;-3.93;100.00
28310;BME280;15571;50.974;13.936;2022-12-19T00:08:39;101477.31;;;-3.94;100.00
28310;BME280;15571;50.974;13.936;2022-12-19T00:11:41;101467.84;;;-3.95;100.00
28310;BME280;15571;50.974;13.936;2022-12-19T00:14:43;101465.06;;;-3.98;100.00
28310;BME280;15571;50.974;13.936;2022-12-19T00:17:47;101481.63;;;-4.04;100.00
28310;BME280;15571;50.974;13.936;2022-12-19T00:20:59;101474.84;;;-4.04;100.00
28310;BME280;15571;50.974;13.936;2022-12-19T00:24:01;101468.63;;;-4.08;100.00
28310;BME280;15571;50.974;13.936;2022-12-19T00:27:03;101481.50;;;-4.06;100.00
28310;BME280;15571;50.974;13.936;2022-12-19T00:30:06;101478.19;;;-4.05;100.00
28310;BME280;15571;50.974;13.936;2022-12-19T00:33:11;101502.22;;;-4.03;100.00
28310;BME280;15571;50.974;13.936;2022-12-19T00:36:15;101515.22;;;-4.00;100.00
28310;BME280;15571;50.974;13.936;2022-12-19T00:39:17;101497.31;;;-4.00;100.00
28310;BME280;15571;50.974;13.936;2022-12-19T00:42:19;101495.53;;;-4.01;100.00
28310;BME280;15571;50.974;13.936;2022-12-19T00:45:22;101509.75;;;-4.04;100.00
28310;BME280;15571;50.974;13.936;2022-12-19T00:48:25;101482.06;;;-4.10;100.00
28310;BME280;15571;50.974;13.936;2022-12-19T00:51:28;101498.31;;;-4.10;100.00
28310;BME280;15571;50.974;13.936;2022-12-19T00:54:30;101484.59;;;-4.10;100.00
28310;BME280;15571;50.974;13.936;2022-12-19T00:57:33;101502.75;;;-4.07;100.00
28310;BME280;15571;50.974;13.936;2022-12-19T01:00:35;101479.72;;;-4.07;100.00
28310;BME280;15571;50.974;13.936;2022-12-19T01:03:39;101475.81;;;-4.14;100.00
28310;BME280;15571;50.974;13.936;2022-12-19T01:06:41;101479.28;;;-4.13;100.00
28310;BME280;15571;50.974;13.936;2022-12-19T01:09:43;101468.81;;;-4.16;100.00
28310;BME280;15571;50.974;13.936;2022-12-19T01:12:45;101482.38;;;-4.17;100.00
28310;BME280;15571;50.974;13.936;2022-12-19T01:15:46;101495.06;;;-4.19;100.00
28310;BME280;15571;50.974;13.936;2022-12-19T01:18:49;101475.03;;;-4.25;100.00
28310;BME280;15571;50.974;13.936;2022-12-19T01:21:51;101472.25;;;-4.28;100.00
28310;BME280;15571;50.974;13.936;2022-12-19T01:24:53;101460.91;;;-4.31;100.00
28310;BME280;15571;50.974;13.936;2022-12-19T01:27:55;101454.09;;;-4.31;100.00
28310;BME280;15571;50.974;13.936;2022-12-19T01:30:58;101454.00;;;-4.32;100.00
28310;BME280;15571;50.974;13.936;2022-12-19T01:34:04;101442.00;;;-4.33;100.00
28310;BME280;15571;50.974;13.936;2022-12-19T01:37:07;101439.56;;;-4.32;100.00
28310;BME280;15571;50.974;13.936;2022-12-19T01:40:09;101445.56;;;-4.31;100.00
28310;BME280;15571;50.974;13.936;2022-12-19T01:43:11;101438.56;;;-4.34;100.00
28310;BME280;15571;50.974;13.936;2022-12-19T01:46:23;101431.66;;;-4.35;100.00
28310;BME280;15571;50.974;13.936;2022-12-19T01:49:29;101433.31;;;-4.35;100.00
28310;BME280;15571;50.974;13.936;2022-12-19T01:52:32;101425.44;;;-4.39;100.00
28310;BME280;15571;50.974;13.936;2022-12-19T01:55:34;101402.97;;;-4.43;100.00
28310;BME280;15571;50.974;13.936;2022-12-19T01:58:41;101418.53;;;-4.40;100.00
28310;BME280;15571;50.974;13.936;2022-12-19T02:01:47;101397.19;;;-4.40;100.00
28310;BME280;15571;50.974;13.936;2022-12-19T02:04:50;101387.53;;;-4.44;100.00
28310;BME280;15571;50.974;13.936;2022-12-19T02:07:52;101384.31;;;-4.42;100.00
28310;BME280;15571;50.974;13.936;2022-12-19T02:10:59;101383.44;;;-4.42;100.00
28310;BME280;15571;50.974;13.936;2022-12-19T02:14:03;101390.53;;;-4.38;100.00
28310;BME280;15571;50.974;13.936;2022-12-19T02:17:06;101376.97;;;-4.37;100.00
28310;BME280;15571;50.974;13.936;2022-12-19T02:20:29;101384.63;;;-4.37;100.00
28310;BME280;15571;50.974;13.936;2022-12-19T02:27:02;101371.19;;;-4.34;100.00
28310;BME280;15571;50.974;13.936;2022-12-19T02:30:10;101366.97;;;-4.34;100.00
28310;BME280;15571;50.974;13.936;2022-12-19T02:33:18;101360.31;;;-4.32;100.00
28310;BME280;15571;50.974;13.936;2022-12-19T02:36:25;101360.31;;;-4.32;100.00
28310;BME280;15571;50.974;13.936;2022-12-19T02:39:31;101356.31;;;-4.28;100.00
28310;BME280;15571;50.974;13.936;2022-12-19T02:42:37;101371.84;;;-4.25;100.00
28310;BME280;15571;50.974;13.936;2022-12-19T02:45:41;101370.09;;;-4.26;100.00
28310;BME280;15571;50.974;13.936;2022-12-19T02:48:44;101364.19;;;-4.25;100.00
28310;BME280;15571;50.974;13.936;2022-12-19T02:51:47;101376.34;;;-4.23;100.00
28310;BME280;15571;50.974;13.936;2022-12-19T02:54:50;101380.53;;;-4.23;100.00
28310;BME280;15571;50.974;13.936;2022-12-19T02:58:04;101385.78;;;-4.22;100.00
28310;BME280;15571;50.974;13.936;2022-12-19T03:01:13;101366.09;;;-4.23;100.00
28310;BME280;15571;50.974;13.936;2022-12-19T03:04:25;101361.00;;;-4.23;100.00
28310;BME280;15571;50.974;13.936;2022-12-19T03:07:33;101386.56;;;-4.23;100.00
28310;BME280;15571;50.974;13.936;2022-12-19T03:10:36;101382.56;;;-4.19;100.00
28310;BME280;15571;50.974;13.936;2022-12-19T03:13:40;101383.66;;;-4.15;100.00
28310;BME280;15571;50.974;13.936;2022-12-19T03:16:45;101396.53;;;-4.14;100.00
28310;BME280;15571;50.974;13.936;2022-12-19T03:19:49;101395.78;;;-4.13;100.00
28310;BME280;15571;50.974;13.936;2022-12-19T03:22:51;101391.66;;;-4.11;100.00
28310;BME280;15571;50.974;13.936;2022-12-19T03:25:56;101395.88;;;-4.11;100.00
28310;BME280;15571;50.974;13.936;2022-12-19T03:29:00;101397.88;;;-4.07;100.00
28310;BME280;15571;50.974;13.936;2022-12-19T03:32:08;101401.69;;;-4.02;100.00
28310;BME280;15571;50.974;13.936;2022-12-19T03:35:14;101401.69;;;-4.02;100.00
28310;BME280;15571;50.974;13.936;2022-12-19T03:38:21;101403.66;;;-3.98;100.00
28310;BME280;15571;50.974;13.936;2022-12-19T03:41:23;101403.91;;;-3.95;100.00
28310;BME280;15571;50.974;13.936;2022-12-19T03:44:40;101403.91;;;-3.95;100.00
28310;BME280;15571;50.974;13.936;2022-12-19T03:47:43;101395.53;;;-3.92;100.00
28310;BME280;15571;50.974;13.936;2022-12-19T03:50:51;101399.22;;;-3.88;100.00
28310;BME280;15571;50.974;13.936;2022-12-19T03:53:57;101401.88;;;-3.87;100.00
28310;BME280;15571;50.974;13.936;2022-12-19T03:57:04;101387.44;;;-3.86;100.00
28310;BME280;15571;50.974;13.936;2022-12-19T04:00:09;101404.56;;;-3.85;100.00
28310;BME280;15571;50.974;13.936;2022-12-19T04:03:15;101391.88;;;-3.84;100.00
28310;BME280;15571;50.974;13.936;2022-12-19T04:06:20;101386.88;;;-3.82;100.00
28310;BME280;15571;50.974;13.936;2022-12-19T04:09:23;101392.19;;;-3.79;100.00
28310;BME280;15571;50.974;13.936;2022-12-19T04:12:26;101388.06;;;-3.77;100.00
28310;BME280;15571;50.974;13.936;2022-12-19T04:15:32;101397.63;;;-3.75;100.00
28310;BME280;15571;50.974;13.936;2022-12-19T04:18:35;101395.31;;;-3.71;100.00
28310;BME280;15571;50.974;13.936;2022-12-19T04:21:41;101400.44;;;-3.71;100.00
28310;BME280;15571;50.974;13.936;2022-12-19T04:24:44;101398.97;;;-3.68;100.00
28310;BME280;15571;50.974;13.936;2022-12-19T04:27:49;101391.38;;;-3.66;100.00
28310;BME280;15571;50.974;13.936;2022-12-19T04:30:53;101389.84;;;-3.64;100.00
28310;BME280;15571;50.974;13.936;2022-12-19T04:33:58;101383.94;;;-3.63;100.00
28310;BME280;15571;50.974;13.936;2022-12-19T04:37:01;101378.03;;;-3.62;100.00
28310;BME280;15571;50.974;13.936;2022-12-19T04:40:05;101372.03;;;-3.63;100.00
28310;BME280;15571;50.974;13.936;2022-12-19T04:43:09;101370.47;;;-3.61;100.00
28310;BME280;15571;50.974;13.936;2022-12-19T04:46:11;101367.13;;;-3.60;100.00
28310;BME280;15571;50.974;13.936;2022-12-19T04:49:13;101377.59;;;-3.56;100.00
28310;BME280;15571;50.974;13.936;2022-12-19T04:52:17;101369.13;;;-3.55;100.00
28310;BME280;15571;50.974;13.936;2022-12-19T04:55:19;101373.47;;;-3.54;100.00
28310;BME280;15571;50.974;13.936;2022-12-19T04:58:21;101393.25;;;-3.52;100.00
28310;BME280;15571;50.974;13.936;2022-12-19T05:01:24;101373.88;;;-3.48;100.00
28310;BME280;15571;50.974;13.936;2022-12-19T05:04:26;101389.47;;;-3.45;100.00
28310;BME280;15571;50.974;13.936;2022-12-19T05:07:30;101378.44;;;-3.44;100.00
28310;BME280;15571;50.974;13.936;2022-12-19T05:10:35;101384.44;;;-3.44;100.00
28310;BME280;15571;50.974;13.936;2022-12-19T05:13:37;101378.44;;;-3.44;100.00
28310;BME280;15571;50.974;13.936;2022-12-19T05:16:42;101365.84;;;-3.41;100.00
28310;BME280;15571;50.974;13.936;2022-12-19T05:19:44;101359.94;;;-3.40;100.00
28310;BME280;15571;50.974;13.936;2022-12-19T05:22:48;101371.75;;;-3.42;100.00
28310;BME280;15571;50.974;13.936;2022-12-19T05:25:56;101364.28;;;-3.39;100.00
28310;BME280;15571;50.974;13.936;2022-12-19T05:28:58;101373.75;;;-3.38;100.00
28310;BME280;15571;50.974;13.936;2022-12-19T05:32:00;101394.44;;;-3.35;100.00
28310;BME280;15571;50.974;13.936;2022-12-19T05:35:02;101384.22;;;-3.35;100.00
28310;BME280;15571;50.974;13.936;2022-12-19T05:38:06;101392.84;;;-3.33;100.00
28310;BME280;15571;50.974;13.936;2022-12-19T05:41:11;101373.50;;;-3.29;100.00
28310;BME280;15571;50.974;13.936;2022-12-19T05:44:14;101385.41;;;-3.30;100.00
28310;BME280;15571;50.974;13.936;2022-12-19T05:47:16;101377.72;;;-3.30;100.00
28310;BME280;15571;50.974;13.936;2022-12-19T05:50:22;101377.72;;;-3.30;100.00
28310;BME280;15571;50.974;13.936;2022-12-19T05:53:26;101393.09;;;-3.30;100.00
28310;BME280;15571;50.974;13.936;2022-12-19T05:56:28;101383.84;;;-3.28;100.00
28310;BME280;15571;50.974;13.936;2022-12-19T05:59:30;101383.94;;;-3.26;100.00
28310;BME280;15571;50.974;13.936;2022-12-19T06:02:32;101382.84;;;-3.30;100.00
28310;BME280;15571;50.974;13.936;2022-12-19T06:05:35;101394.09;;;-3.28;100.00
28310;BME280;15571;50.974;13.936;2022-12-19T06:08:39;101389.84;;;-3.27;100.00
28310;BME280;15571;50.974;13.936;2022-12-19T06:11:41;101389.84;;;-3.27;100.00
28310;BME280;15571;50.974;13.936;2022-12-19T06:14:46;101392.31;;;-3.29;100.00
28310;BME280;15571;50.974;13.936;2022-12-19T06:17:51;101382.16;;;-3.27;100.00
28310;BME280;15571;50.974;13.936;2022-12-19T06:20:56;101373.03;;;-3.23;100.00
28310;BME280;15571;50.974;13.936;2022-12-19T06:24:00;101373.22;;;-3.20;100.00
28310;BME280;15571;50.974;13.936;2022-12-19T06:27:02;101384.47;;;-3.18;100.00
28310;BME280;15571;50.974;13.936;2022-12-19T06:30:07;101393.94;;;-3.17;100.00
28310;BME280;15571;50.974;13.936;2022-12-19T06:33:09;101397.50;;;-3.15;100.00
28310;BME280;15571;50.974;13.936;2022-12-19T06:36:12;101386.56;;;-3.13;100.00
28310;BME280;15571;50.974;13.936;2022-12-19T06:39:16;101380.75;;;-3.10;100.00
28310;BME280;15571;50.974;13.936;2022-12-19T06:42:19;101409.16;;;-3.07;100.00
28310;BME280;15571;50.974;13.936;2022-12-19T06:45:22;101398.91;;;-3.07;100.00
28310;BME280;15571;50.974;13.936;2022-12-19T06:48:29;101385.31;;;-3.06;100.00
28310;BME280;15571;50.974;13.936;2022-12-19T06:51:34;101377.81;;;-3.03;100.00
28310;BME280;15571;50.974;13.936;2022-12-19T06:54:37;101368.50;;;-3.02;100.00
28310;BME280;15571;50.974;13.936;2022-12-19T06:57:39;101378.03;;;-3.00;100.00
28310;BME280;15571;50.974;13.936;2022-12-19T07:00:45;101369.56;;;-2.99;100.00
28310;BME280;15571;50.974;13.936;2022-12-19T07:03:47;101367.78;;;-3.00;100.00
28310;BME280;15571;50.974;13.936;2022-12-19T07:06:50;101369.78;;;-2.95;100.00
28310;BME280;15571;50.974;13.936;2022-12-19T07:09:53;101352.66;;;-2.97;100.00
28310;BME280;15571;50.974;13.936;2022-12-19T07:12:55;101357.84;;;-2.95;100.00
28310;BME280;15571;50.974;13.936;2022-12-19T07:15:57;101347.69;;;-2.93;100.00
28310;BME280;15571;50.974;13.936;2022-12-19T07:19:01;101355.50;;;-2.92;100.00
28310;BME280;15571;50.974;13.936;2022-12-19T07:22:03;101365.06;;;-2.89;100.00
28310;BME280;15571;50.974;13.936;2022-12-19T07:25:08;101359.25;;;-2.87;100.00
28310;BME280;15571;50.974;13.936;2022-12-19T07:28:11;101361.94;;;-2.85;100.00
28310;BME280;15571;50.974;13.936;2022-12-19T07:31:14;101375.94;;;-2.80;100.00
28310;BME280;15571;50.974;13.936;2022-12-19T07:34:15;101371.81;;;-2.78;100.00
28310;BME280;15571;50.974;13.936;2022-12-19T07:37:18;101376.25;;;-2.75;100.00
28310;BME280;15571;50.974;13.936;2022-12-19T07:40:22;101395.28;;;-2.72;100.00
28310;BME280;15571;50.974;13.936;2022-12-19T07:43:27;101391.16;;;-2.70;100.00
28310;BME280;15571;50.974;13.936;2022-12-19T07:46:29;101383.69;;;-2.67;100.00
28310;BME280;15571;50.974;13.936;2022-12-19T07:49:31;101383.69;;;-2.67;100.00
28310;BME280;15571;50.974;13.936;2022-12-19T07:52:34;101382.28;;;-2.61;100.00
28310;BME280;15571;50.974;13.936;2022-12-19T07:55:37;101370.69;;;-2.56;100.00
28310;BME280;15571;50.974;13.936;2022-12-19T07:58:39;101375.13;;;-2.54;100.00
28310;BME280;15571;50.974;13.936;2022-12-19T08:01:42;101380.56;;;-2.49;100.00
28310;BME280;15571;50.974;13.936;2022-12-19T08:04:46;101384.91;;;-2.48;100.00
28310;BME280;15571;50.974;13.936;2022-12-19T08:07:48;101382.41;;;-2.46;100.00
28310;BME280;15571;50.974;13.936;2022-12-19T08:10:54;101381.53;;;-2.47;100.00
28310;BME280;15571;50.974;13.936;2022-12-19T08:13:56;101370.59;;;-2.44;100.00
28310;BME280;15571;50.974;13.936;2022-12-19T08:16:58;101381.94;;;-2.41;100.00
28310;BME280;15571;50.974;13.936;2022-12-19T08:20:01;101382.94;;;-2.39;100.00
28310;BME280;15571;50.974;13.936;2022-12-19T08:23:03;101380.59;;;-2.36;100.00
28310;BME280;15571;50.974;13.936;2022-12-19T08:26:07;101382.31;;;-2.35;100.00
28310;BME280;15571;50.974;13.936;2022-12-19T08:29:09;101379.97;;;-2.31;100.00
28310;BME280;15571;50.974;13.936;2022-12-19T08:32:11;101374.94;;;-2.30;100.00
28310;BME280;15571;50.974;13.936;2022-12-19T08:35:15;101366.44;;;-2.29;100.00
28310;BME280;15571;50.974;13.936;2022-12-19T08:38:17;101354.72;;;-2.25;100.00
28310;BME280;15571;50.974;13.936;2022-12-19T08:41:21;101340.31;;;-2.23;100.00
28310;BME280;15571;50.974;13.936;2022-12-19T08:44:23;101337.75;;;-2.23;100.00
28310;BME280;15571;50.974;13.936;2022-12-19T08:47:25;101339.31;;;-2.25;100.00
28310;BME280;15571;50.974;13.936;2022-12-19T08:50:27;101347.13;;;-2.24;100.00
28310;BME280;15571;50.974;13.936;2022-12-19T08:53:30;101336.88;;;-2.24;100.00
28310;BME280;15571;50.974;13.936;2022-12-19T08:56:37;101333.59;;;-2.21;100.00
28310;BME280;15571;50.974;13.936;2022-12-19T08:59:39;101319.13;;;-2.21;100.00
28310;BME280;15571;50.974;13.936;2022-12-19T09:02:43;101325.34;;;-2.17;100.00
28310;BME280;15571;50.974;13.936;2022-12-19T09:05:46;101308.53;;;-2.12;100.00
28310;BME280;15571;50.974;13.936;2022-12-19T09:08:48;101311.19;;;-2.10;100.00
28310;BME280;15571;50.974;13.936;2022-12-19T09:11:51;101307.16;;;-2.07;100.00
28310;BME280;15571;50.974;13.936;2022-12-19T09:14:53;101301.22;;;-2.06;100.00
28310;BME280;15571;50.974;13.936;2022-12-19T09:17:55;101293.13;;;-1.98;100.00
28310;BME280;15571;50.974;13.936;2022-12-19T09:20:57;101300.34;;;-1.93;100.00
28310;BME280;15571;50.974;13.936;2022-12-19T09:24:00;101288.66;;;-1.88;100.00
28310;BME280;15571;50.974;13.936;2022-12-19T09:27:05;101288.16;;;-1.82;100.00
28310;BME280;15571;50.974;13.936;2022-12-19T09:30:08;101291.63;;;-1.81;100.00
28310;BME280;15571;50.974;13.936;2022-12-19T09:33:12;101290.22;;;-1.76;100.00
28310;BME280;15571;50.974;13.936;2022-12-19T09:36:16;101279.25;;;-1.74;100.00
28310;BME280;15571;50.974;13.936;2022-12-19T09:39:19;101283.88;;;-1.68;100.00
28310;BME280;15571;50.974;13.936;2022-12-19T09:45:43;101277.44;;;-1.61;100.00
28310;BME280;15571;50.974;13.936;2022-12-19T09:48:48;101278.41;;;-1.59;100.00
28310;BME280;15571;50.974;13.936;2022-12-19T09:51:56;101280.28;;;-1.57;100.00
28310;BME280;15571;50.974;13.936;2022-12-19T09:55:01;101283.13;;;-1.52;100.00
28310;BME280;15571;50.974;13.936;2022-12-19T09:58:04;101286.69;;;-1.50;100.00
28310;BME280;15571;50.974;13.936;2022-12-19T10:01:11;101274.81;;;-1.48;100.00
28310;BME280;15571;50.974;13.936;2022-12-19T10:04:16;101276.56;;;-1.47;100.00
28310;BME280;15571;50.974;13.936;2022-12-19T10:07:19;101273.41;;;-1.43;100.00
28310;BME280;15571;50.974;13.936;2022-12-19T10:10:24;101273.59;;;-1.39;100.00
28310;BME280;15571;50.974;13.936;2022-12-19T10:13:31;101272.00;;;-1.37;100.00
28310;BME280;15571;50.974;13.936;2022-12-19T10:16:45;101264.59;;;-1.33;100.00
28310;BME280;15571;50.974;13.936;2022-12-19T10:19:55;101266.53;;;-1.29;100.00
28310;BME280;15571;50.974;13.936;2022-12-19T10:23:06;101263.22;;;-1.26;100.00
28310;BME280;15571;50.974;13.936;2022-12-19T10:26:15;101266.00;;;-1.23;100.00
28310;BME280;15571;50.974;13.936;2022-12-19T10:29:29;101257.69;;;-1.19;100.00
28310;BME280;15571;50.974;13.936;2022-12-19T10:32:35;101260.59;;;-1.13;100.00
28310;BME280;15571;50.974;13.936;2022-12-19T10:35:42;101257.16;;;-1.13;100.00
28310;BME280;15571;50.974;13.936;2022-12-19T10:38:49;101258.22;;;-1.10;100.00
28310;BME280;15571;50.974;13.936;2022-12-19T10:41:55;101240.22;;;-1.10;100.00
28310;BME280;15571;50.974;13.936;2022-12-19T10:45:01;101238.81;;;-1.04;100.00
28310;BME280;15571;50.974;13.936;2022-12-19T10:48:07;101246.50;;;-1.04;100.00
28310;BME280;15571;50.974;13.936;2022-12-19T10:51:12;101251.66;;;-1.04;100.00
28310;BME280;15571;50.974;13.936;2022-12-19T10:54:20;101243.34;;;-1.00;100.00
28310;BME280;15571;50.974;13.936;2022-12-19T10:57:23;101230.56;;;-0.99;100.00
28310;BME280;15571;50.974;13.936;2022-12-19T11:00:26;101232.53;;;-0.95;100.00
28310;BME280;15571;50.974;13.936;2022-12-19T11:03:32;101224.88;;;-0.93;100.00
28310;BME280;15571;50.974;13.936;2022-12-19T11:06:39;101226.84;;;-0.89;100.00
28310;BME280;15571;50.974;13.936;2022-12-19T11:09:45;101216.00;;;-0.83;100.00
28310;BME280;15571;50.974;13.936;2022-12-19T11:12:50;101209.28;;;-0.81;100.00
28310;BME280;15571;50.974;13.936;2022-12-19T11:15:53;101210.19;;;-0.81;100.00
28310;BME280;15571;50.974;13.936;2022-12-19T11:18:58;101222.38;;;-0.76;100.00
28310;BME280;15571;50.974;13.936;2022-12-19T11:22:02;101210.69;;;-0.71;100.00
28310;BME280;15571;50.974;13.936;2022-12-19T11:25:05;101199.75;;;-0.67;100.00
28310;BME280;15571;50.974;13.936;2022-12-19T11:28:16;101197.19;;;-0.67;100.00
28310;BME280;15571;50.974;13.936;2022-12-19T11:31:20;101182.56;;;-0.68;100.00
28310;BME280;15571;50.974;13.936;2022-12-19T11:34:28;101179.28;;;-0.66;100.00
28310;BME280;15571;50.974;13.936;2022-12-19T11:37:33;101170.78;;;-0.65;100.00
28310;BME280;15571;50.974;13.936;2022-12-19T11:40:37;101167.38;;;-0.64;100.00
28310;BME280;15571;50.974;13.936;2022-12-19T11:43:45;101170.06;;;-0.62;100.00
28310;BME280;15571;50.974;13.936;2022-12-19T11:46:51;101153.81;;;-0.61;100.00
28310;BME280;15571;50.974;13.936;2022-12-19T11:49:58;101147.88;;;-0.60;100.00
28310;BME280;15571;50.974;13.936;2022-12-19T11:53:04;101159.22;;;-0.56;100.00
28310;BME280;15571;50.974;13.936;2022-12-19T11:56:17;101154.94;;;-0.56;100.00
28310;BME280;15571;50.974;13.936;2022-12-19T11:59:23;101164.38;;;-0.56;100.00
28310;BME280;15571;50.974;13.936;2022-12-19T12:05:54;101154.31;;;-0.52;100.00
28310;BME280;15571;50.974;13.936;2022-12-19T12:09:03;101159.47;;;-0.52;100.00
28310;BME280;15571;50.974;13.936;2022-12-19T12:12:09;101147.59;;;-0.50;100.00
28310;BME280;15571;50.974;13.936;2022-12-19T12:15:34;101146.94;;;-0.45;100.00
28310;BME280;15571;50.974;13.936;2022-12-19T12:18:45;101141.78;;;-0.45;100.00
28310;BME280;15571;50.974;13.936;2022-12-19T12:21:56;101138.41;;;-0.44;100.00
28310;BME280;15571;50.974;13.936;2022-12-19T12:25:05;101134.06;;;-0.45;100.00
28310;BME280;15571;50.974;13.936;2022-12-19T12:28:29;101135.66;;;-0.48;100.00
28310;BME280;15571;50.974;13.936;2022-12-19T12:35:05;101131.50;;;-0.45;100.00
28310;BME280;15571;50.974;13.936;2022-12-19T12:38:25;101122.19;;;-0.43;100.00
28310;BME280;15571;50.974;13.936;2022-12-19T12:41:33;101115.09;;;-0.48;100.00
28310;BME280;15571;50.974;13.936;2022-12-19T12:44:56;101110.75;;;-0.49;100.00
28310;BME280;15571;50.974;13.936;2022-12-19T12:47:59;101098.78;;;-0.48;100.00
28310;BME280;15571;50.974;13.936;2022-12-19T12:51:02;101102.97;;;-0.50;100.00
28310;BME280;15571;50.974;13.936;2022-12-19T12:54:08;101103.88;;;-0.50;100.00
28310;BME280;15571;50.974;13.936;2022-12-19T12:57:16;101100.47;;;-0.49;100.00
28310;BME280;15571;50.974;13.936;2022-12-19T13:00:21;101086.66;;;-0.51;100.00
28310;BME280;15571;50.974;13.936;2022-12-19T13:03:25;101086.66;;;-0.51;100.00
28310;BME280;15571;50.974;13.936;2022-12-19T13:06:31;101084.16;;;-0.49;100.00
28310;BME280;15571;50.974;13.936;2022-12-19T13:09:34;101080.78;;;-0.48;100.00
28310;BME280;15571;50.974;13.936;2022-12-19T13:12:37;101083.53;;;-0.45;100.00
28310;BME280;15571;50.974;13.936;2022-12-19T13:16:04;101081.81;;;-0.44;100.00
28310;BME280;15571;50.974;13.936;2022-12-19T13:19:27;101083.59;;;-0.43;100.00
28310;BME280;15571;50.974;13.936;2022-12-19T13:22:37;101082.78;;;-0.42;100.00
28310;BME280;15571;50.974;13.936;2022-12-19T13:25:48;101080.22;;;-0.42;100.00
28310;BME280;15571;50.974;13.936;2022-12-19T13:28:52;101083.59;;;-0.43;100.00
28310;BME280;15571;50.974;13.936;2022-12-19T13:32:07;101073.47;;;-0.40;100.00
28310;BME280;15571;50.974;13.936;2022-12-19T13:38:27;101068.34;;;-0.40;100.00
28310;BME280;15571;50.974;13.936;2022-12-19T13:41:30;101070.09;;;-0.39;100.00
28310;BME280;15571;50.974;13.936;2022-12-19T23:13:28;100868.72;;;0.18;100.00
28310;BME280;15571;50.974;13.936;2022-12-19T23:16:30;100868.63;;;0.16;100.00
28310;BME280;15571;50.974;13.936;2022-12-19T23:19:32;100868.56;;;0.14;100.00
28310;BME280;15571;50.974;13.936;2022-12-19T23:22:34;100867.69;;;0.14;100.00
28310;BME280;15571;50.974;13.936;2022-12-19T23:25:37;100854.00;;;0.15;100.00
28310;BME280;15571;50.974;13.936;2022-12-19T23:28:41;100849.59;;;0.12;100.00
28310;BME280;15571;50.974;13.936;2022-12-19T23:31:44;100861.66;;;0.13;100.00
28310;BME280;15571;50.974;13.936;2022-12-19T23:34:46;100866.00;;;0.14;100.00
28310;BME280;15571;50.974;13.936;2022-12-19T23:37:48;100866.00;;;0.14;100.00
28310;BME280;15571;50.974;13.936;2022-12-19T23:40:50;100860.84;;;0.14;100.00
28310;BME280;15571;50.974;13.936;2022-12-19T23:43:53;100880.63;;;0.15;100.00
28310;BME280;15571;50.974;13.936;2022-12-19T23:46:55;100877.09;;;0.13;100.00
28310;BME280;15571;50.974;13.936;2022-12-19T23:49:57;100873.56;;;0.11;100.00
28310;BME280;15571;50.974;13.936;2022-12-19T23:52:59;100888.13;;;0.11;100.00
28310;BME280;15571;50.974;13.936;2022-12-19T23:56:01;100871.78;;;0.10;100.00
28310;BME280;15571;50.974;13.936;2022-12-19T23:59:05;100876.00;;;0.08;100.00
